TimeCST,TemperatureF,Dew PointF,Humidity,Sea Level PressureIn,VisibilityMPH,Wind Direction,Wind SpeedMPH,Gust SpeedMPH,PrecipitationIn,Events,Conditions,WindDirDegrees,DateUTC
12:15 AM,41.4,38.3,89,30.08,10.0,SSE,5.8,-,N/A,,Clear,150,2013-03-04 06:15:00
12:35 AM,40.5,37.9,91,30.07,10.0,SSE,6.9,-,N/A,,Clear,150,2013-03-04 06:35:00
12:55 AM,41.4,39.0,91,30.07,10.0,SSE,4.6,-,N/A,,Clear,150,2013-03-04 06:55:00
1:15 AM,43.5,41.0,91,30.07,10.0,SE,5.8,-,N/A,,Clear,140,2013-03-04 07:15:00
1:35 AM,44.6,41.2,88,30.06,10.0,SE,4.6,-,N/A,,Clear,140,2013-03-04 07:35:00
1:55 AM,43.7,40.6,89,30.06,10.0,SSE,5.8,-,N/A,,Clear,150,2013-03-04 07:55:00
2:15 AM,44.6,41.9,90,30.05,10.0,SE,4.6,-,N/A,,Clear,140,2013-03-04 08:15:00
2:35 AM,42.8,40.5,91,30.05,10.0,SE,3.5,-,N/A,,Clear,140,2013-03-04 08:35:00
2:55 AM,43.3,41.0,91,30.04,10.0,SSE,5.8,-,N/A,,Clear,150,2013-03-04 08:55:00
3:15 AM,42.1,39.9,92,30.03,10.0,SE,4.6,-,N/A,,Clear,140,2013-03-04 09:15:00
3:35 AM,43.7,41.4,91,30.03,10.0,Calm,Calm,-,N/A,,Clear,0,2013-03-04 09:35:00
3:55 AM,44.1,42.1,93,30.02,10.0,SE,5.8,-,N/A,,Clear,130,2013-03-04 09:55:00
4:15 AM,43.5,41.7,93,30.02,10.0,SE,6.9,-,N/A,,Clear,130,2013-03-04 10:15:00
4:35 AM,45.7,43.5,92,30.02,10.0,SE,4.6,-,N/A,,Clear,140,2013-03-04 10:35:00
4:55 AM,46.4,44.4,93,30.01,10.0,SE,9.2,-,N/A,,Clear,140,2013-03-04 10:55:00
5:15 AM,47.5,45.0,91,30.00,10.0,SE,8.1,-,N/A,,Clear,140,2013-03-04 11:15:00
5:35 AM,47.5,45.5,93,30.01,10.0,SSE,6.9,-,N/A,,Clear,160,2013-03-04 11:35:00
6:45 AM,51.8,48.2,88,29.99,10.0,SSE,8.1,-,N/A,,Clear,160,2013-03-04 12:45:00
7:45 AM,55.4,51.8,88,30.00,10.0,SSE,8.1,-,N/A,,Clear,160,2013-03-04 13:45:00
8:50 AM,64.4,55.4,73,30.01,10.0,South,19.6,21.9,N/A,,Scattered Clouds,180,2013-03-04 14:50:00
9:45 AM,66.2,55.4,68,30.00,10.0,SSW,24.2,32.2,N/A,,Mostly Cloudy,200,2013-03-04 15:45:00
10:45 AM,69.8,55.4,60,29.99,10.0,South,26.5,33.4,N/A,,Mostly Cloudy,180,2013-03-04 16:45:00
11:50 AM,71.6,55.4,57,29.99,10.0,SSW,20.7,31.1,N/A,,Mostly Cloudy,200,2013-03-04 17:50:00
12:50 PM,71.6,55.4,57,29.96,10.0,South,24.2,32.2,N/A,,Mostly Cloudy,180,2013-03-04 18:50:00
1:50 PM,71.6,55.4,57,29.94,10.0,SSW,24.2,33.4,N/A,,Mostly Cloudy,200,2013-03-04 19:50:00
3:50 PM,71.6,57.2,60,29.89,10.0,SSW,25.3,34.5,N/A,,Mostly Cloudy,200,2013-03-04 21:50:00
4:45 PM,71.6,57.2,60,29.89,10.0,South,20.7,28.8,N/A,,Mostly Cloudy,190,2013-03-04 22:45:00
5:50 PM,68.0,59.0,73,29.88,10.0,South,15.0,23.0,N/A,,Mostly Cloudy,180,2013-03-04 23:50:00
6:58 PM,64.4,59.0,83,29.88,10.0,South,11.5,-,N/A,,Mostly Cloudy,170,2013-03-05 00:58:00
7:50 PM,64.4,59.0,83,29.88,10.0,South,11.5,-,N/A,,Mostly Cloudy,170,2013-03-05 01:50:00
8:50 PM,64.4,59.0,83,29.89,10.0,South,11.5,-,N/A,,Scattered Clouds,170,2013-03-05 02:50:00
9:45 PM,64.4,60.8,88,29.91,10.0,South,10.4,-,N/A,,Scattered Clouds,180,2013-03-05 03:45:00
10:15 PM,64.6,59.9,85,29.91,10.0,South,9.2,-,N/A,,Mostly Cloudy,180,2013-03-05 04:15:00
10:35 PM,64.4,59.5,84,29.90,10.0,South,10.4,-,N/A,,Mostly Cloudy,180,2013-03-05 04:35:00
10:55 PM,63.9,59.4,85,29.91,10.0,South,8.1,-,N/A,,Scattered Clouds,170,2013-03-05 04:55:00
11:15 PM,63.1,59.2,87,29.90,10.0,South,9.2,-,N/A,,Scattered Clouds,170,2013-03-05 05:15:00
11:35 PM,62.6,59.0,88,29.90,7.0,South,6.9,-,N/A,,Scattered Clouds,170,2013-03-05 05:35:00
11:55 PM,62.6,59.0,88,29.91,7.0,South,6.9,-,N/A,,Mostly Cloudy,170,2013-03-05 05:55:00